createdAt,value
2022-08-01T00:00:39.862Z,3.74
2022-08-01T00:01:44.063Z,3.83
2022-08-01T00:02:45.918Z,3.76
2022-08-01T00:03:47.583Z,3.63
2022-08-01T00:04:49.262Z,3.72
2022-08-01T00:05:50.891Z,3.37
2022-08-01T00:06:52.558Z,3.48
2022-08-01T00:07:54.269Z,3.47
2022-08-01T00:08:56.334Z,3.35
2022-08-01T00:09:57.973Z,3.36
2022-08-01T00:11:02.781Z,3.53
2022-08-01T00:12:05.881Z,3.21
2022-08-01T00:13:07.523Z,3.41
2022-08-01T00:14:10.593Z,3.37
2022-08-01T00:15:15.080Z,3.52
2022-08-01T00:16:16.884Z,3.65
2022-08-01T00:17:18.630Z,3.49
2022-08-01T00:18:20.289Z,3.87
2022-08-01T00:19:21.942Z,3.91
2022-08-01T00:20:23.610Z,3.89
2022-08-01T00:21:25.294Z,3.42
2022-08-01T00:22:27.291Z,3.84
2022-08-01T00:23:28.979Z,3.79
2022-08-01T00:24:30.708Z,3.55
2022-08-01T00:25:33.955Z,3.38
2022-08-01T00:26:36.315Z,3.58
2022-08-01T00:27:38.103Z,3.43
2022-08-01T00:28:40.487Z,3.40
2022-08-01T00:30:09.801Z,3.42
2022-08-01T00:31:03.934Z,3.14
2022-08-01T00:32:06.169Z,3.22
2022-08-01T00:33:08.075Z,3.32
2022-08-01T00:34:09.741Z,2.98
2022-08-01T00:35:11.634Z,2.85
2022-08-01T00:36:13.459Z,2.81
2022-08-01T00:37:16.209Z,3.18
2022-08-01T00:38:17.918Z,3.07
2022-08-01T00:39:19.585Z,3.08
2022-08-01T00:40:21.337Z,3.08
2022-08-01T00:41:23.022Z,2.87
2022-08-01T00:42:24.771Z,3.00
2022-08-01T00:43:26.554Z,3.04
2022-08-01T00:44:28.299Z,3.35
2022-08-01T00:45:30.039Z,3.14
2022-08-01T00:46:32.406Z,3.02
2022-08-01T00:47:34.133Z,3.24
2022-08-01T00:48:35.992Z,3.22
2022-08-01T00:49:37.804Z,3.09
2022-08-01T00:50:39.821Z,3.60
2022-08-01T00:51:41.815Z,3.40
2022-08-01T00:52:51.526Z,3.03
2022-08-01T00:53:54.036Z,3.32
2022-08-01T00:54:56.817Z,3.52
2022-08-01T00:55:58.541Z,3.53
2022-08-01T00:57:01.071Z,3.27
2022-08-01T00:58:05.703Z,3.33
2022-08-01T00:59:09.468Z,3.57
2022-08-01T01:00:12.259Z,3.47
2022-08-01T01:01:14.162Z,3.62
2022-08-01T01:02:16.073Z,3.60
2022-08-01T01:03:17.801Z,3.68
2022-08-01T01:04:19.477Z,3.44
2022-08-01T01:05:21.792Z,3.17
2022-08-01T01:06:29.262Z,3.16
2022-08-01T01:07:49.947Z,3.46
2022-08-01T01:09:17.237Z,3.24
2022-08-01T01:10:22.902Z,3.47
2022-08-01T01:11:36.225Z,3.52
2022-08-01T01:12:53.190Z,3.28
2022-08-01T01:14:06.133Z,3.50
2022-08-01T01:15:12.651Z,3.73
2022-08-01T01:16:18.374Z,3.56
2022-08-01T01:17:31.244Z,3.91
2022-08-01T01:19:01.522Z,3.78
2022-08-01T01:20:06.875Z,3.74
2022-08-01T01:21:17.440Z,3.75
2022-08-01T01:22:47.224Z,3.71
2022-08-01T01:24:22.957Z,3.64
2022-08-01T01:25:50.811Z,3.38
2022-08-01T01:27:19.181Z,3.74
2022-08-01T01:29:22.529Z,3.61
2022-08-01T01:30:29.084Z,3.73
2022-08-01T01:31:38.596Z,3.42
2022-08-01T01:32:45.845Z,3.58
2022-08-01T01:33:50.644Z,3.94
2022-08-01T01:34:56.394Z,3.50
2022-08-01T01:36:04.277Z,3.47
2022-08-01T01:37:18.669Z,3.61
2022-08-01T01:38:34.784Z,3.93
2022-08-01T01:39:39.528Z,3.65
2022-08-01T01:40:49.865Z,3.86
2022-08-01T01:41:55.727Z,4.04
2022-08-01T01:42:58.370Z,3.99
2022-08-01T01:44:02.959Z,3.82
2022-08-01T01:45:08.318Z,4.06
2022-08-01T01:46:13.441Z,3.65
2022-08-01T01:47:18.089Z,3.55
2022-08-01T01:48:22.387Z,3.65
2022-08-01T01:49:27.909Z,3.74
2022-08-01T01:50:31.605Z,3.94
2022-08-01T01:51:34.579Z,3.94
2022-08-01T01:52:39.056Z,4.30
2022-08-01T01:53:42.590Z,3.78
2022-08-01T01:54:49.707Z,4.05
2022-08-01T01:55:54.678Z,4.35
2022-08-01T01:57:00.659Z,4.27
2022-08-01T01:58:02.686Z,4.01
2022-08-01T01:59:05.573Z,3.90
2022-08-01T02:00:09.529Z,4.04
2022-08-01T02:01:14.626Z,4.11
2022-08-01T02:02:18.745Z,3.71
2022-08-01T02:03:23.050Z,3.74
2022-08-01T02:04:28.081Z,3.55
2022-08-01T02:05:31.012Z,4.09
2022-08-01T02:06:34.577Z,3.77
2022-08-01T02:07:39.645Z,3.82
2022-08-01T02:08:44.928Z,3.56
2022-08-01T02:09:48.548Z,3.94
2022-08-01T02:11:13.058Z,3.80
2022-08-01T02:12:18.678Z,3.93
2022-08-01T02:13:21.414Z,4.01
2022-08-01T02:14:24.787Z,3.90
2022-08-01T02:15:29.043Z,4.16
2022-08-01T02:16:35.958Z,4.19
2022-08-01T02:17:44.663Z,4.05
2022-08-01T02:18:47.012Z,4.13
2022-08-01T02:19:49.193Z,4.38
2022-08-01T02:20:54.490Z,4.17
2022-08-01T02:22:08.908Z,4.25
2022-08-01T02:23:14.209Z,3.90
2022-08-01T02:24:30.606Z,3.68
2022-08-01T02:25:39.622Z,3.70
2022-08-01T02:27:07.647Z,4.22
2022-08-01T02:28:33.495Z,4.19
2022-08-01T02:29:43.024Z,4.26
2022-08-01T02:30:49.524Z,3.73
2022-08-01T02:31:55.609Z,3.95
2022-08-01T02:33:15.794Z,4.11
2022-08-01T02:34:20.779Z,4.14
2022-08-01T02:35:29.103Z,4.10
2022-08-01T02:36:36.285Z,3.99
2022-08-01T02:37:41.928Z,4.07
2022-08-01T02:38:48.027Z,4.03
2022-08-01T02:39:53.700Z,4.06
2022-08-01T02:41:00.826Z,4.18
2022-08-01T02:42:07.938Z,4.02
2022-08-01T02:43:11.809Z,4.48
2022-08-01T02:44:24.558Z,4.24
2022-08-01T02:45:27.826Z,4.69
2022-08-01T02:46:52.726Z,4.13
2022-08-01T02:48:02.808Z,4.35
2022-08-01T02:49:08.788Z,4.05
2022-08-01T02:50:13.459Z,4.29
2022-08-01T02:51:18.738Z,4.56
2022-08-01T02:52:24.205Z,4.08
2022-08-01T02:53:39.126Z,4.71
2022-08-01T02:54:51.088Z,4.33
2022-08-01T02:55:54.955Z,4.64
2022-08-01T02:56:58.477Z,4.19
2022-08-01T02:58:02.896Z,4.57
2022-08-01T02:59:10.165Z,4.23
2022-08-01T03:00:12.534Z,4.28
2022-08-01T03:01:19.972Z,4.45
2022-08-01T03:02:25.228Z,4.34
2022-08-01T03:03:27.266Z,4.48
2022-08-01T03:04:29.687Z,4.46
2022-08-01T03:05:33.966Z,4.97
2022-08-01T03:06:38.345Z,4.74
2022-08-01T03:07:42.688Z,4.49
2022-08-01T03:08:47.574Z,4.70
2022-08-01T03:09:51.677Z,4.77
2022-08-01T03:10:56.755Z,4.30
2022-08-01T03:12:05.539Z,4.67
2022-08-01T03:13:10.588Z,4.61
2022-08-01T03:14:15.245Z,4.43
2022-08-01T03:15:19.702Z,4.44
2022-08-01T03:16:25.211Z,4.88
2022-08-01T03:17:31.358Z,4.41
2022-08-01T03:18:36.081Z,4.69
2022-08-01T03:19:40.183Z,4.42
2022-08-01T03:20:44.510Z,4.50
2022-08-01T03:21:49.429Z,4.47
2022-08-01T03:22:54.408Z,5.09
2022-08-01T03:24:01.536Z,5.11
2022-08-01T03:25:04.526Z,5.44
2022-08-01T03:26:07.341Z,4.73
2022-08-01T03:27:10.111Z,4.68
2022-08-01T03:28:16.988Z,4.31
2022-08-01T03:29:26.478Z,4.35
2022-08-01T03:30:30.835Z,4.18
2022-08-01T03:31:36.307Z,4.38
2022-08-01T03:32:38.267Z,4.50
2022-08-01T03:33:40.008Z,4.47
2022-08-01T03:34:41.936Z,4.17
2022-08-01T03:35:55.231Z,4.79
2022-08-01T03:37:28.189Z,4.94
2022-08-01T03:38:36.573Z,4.83
2022-08-01T03:39:45.326Z,4.48
2022-08-01T03:41:12.696Z,5.12
2022-08-01T03:42:20.128Z,5.05
2022-08-01T03:43:37.613Z,5.15
2022-08-01T03:44:42.290Z,4.74
2022-08-01T03:45:54.201Z,4.81
2022-08-01T03:47:02.552Z,4.43
2022-08-01T03:48:14.224Z,4.85
2022-08-01T03:49:22.592Z,4.99
2022-08-01T03:50:26.055Z,4.66
2022-08-01T03:51:30.627Z,4.48
2022-08-01T03:52:35.910Z,4.66
2022-08-01T03:53:42.462Z,4.73
2022-08-01T03:54:54.433Z,4.77
2022-08-01T03:55:59.577Z,4.57
2022-08-01T03:57:02.875Z,4.81
2022-08-01T03:58:09.847Z,4.44
2022-08-01T03:59:13.059Z,4.49
2022-08-01T04:00:19.284Z,4.68
2022-08-01T04:01:21.940Z,4.05
2022-08-01T04:02:24.579Z,3.61
2022-08-01T04:03:26.996Z,3.84
2022-08-01T04:04:30.062Z,3.89
2022-08-01T04:05:32.379Z,4.00
2022-08-01T04:06:34.129Z,4.17
2022-08-01T04:07:40.224Z,4.32
2022-08-01T04:08:42.456Z,4.46
2022-08-01T04:09:44.269Z,4.02
2022-08-01T04:10:46.060Z,4.08
2022-08-01T04:11:48.482Z,4.51
2022-08-01T04:12:50.426Z,4.09
2022-08-01T04:13:54.158Z,4.77
2022-08-01T04:14:57.097Z,4.86
2022-08-01T04:15:58.729Z,4.72
2022-08-01T04:17:00.361Z,4.57
2022-08-01T04:18:02.065Z,4.52
2022-08-01T04:19:04.209Z,4.70
2022-08-01T04:20:06.444Z,4.51
2022-08-01T04:21:08.673Z,4.81
2022-08-01T04:22:16.560Z,5.11
2022-08-01T04:23:27.032Z,4.76
2022-08-01T04:24:32.651Z,4.85
2022-08-01T04:25:38.121Z,4.77
2022-08-01T04:26:42.712Z,4.61
2022-08-01T04:27:51.966Z,4.32
2022-08-01T04:28:56.388Z,5.29
2022-08-01T04:30:00.328Z,4.84
2022-08-01T04:31:06.614Z,4.59
2022-08-01T04:32:13.861Z,5.10
2022-08-01T04:33:18.854Z,4.57
2022-08-01T04:34:25.375Z,4.57
2022-08-01T04:36:01.888Z,7.12
2022-08-01T04:36:55.458Z,5.71
2022-08-01T04:38:00.321Z,5.34
2022-08-01T04:39:04.870Z,5.87
2022-08-01T04:40:09.540Z,5.06
2022-08-01T04:41:14.657Z,5.10
2022-08-01T04:42:17.217Z,5.14
2022-08-01T04:43:27.797Z,5.46
2022-08-01T04:44:32.578Z,5.00
2022-08-01T04:45:37.368Z,4.67
2022-08-01T04:46:41.311Z,4.83
2022-08-01T04:47:44.696Z,5.04
2022-08-01T04:48:47.194Z,4.97
2022-08-01T04:49:49.831Z,5.22
2022-08-01T04:50:52.577Z,5.18
2022-08-01T04:51:58.717Z,5.65
2022-08-01T04:53:00.392Z,5.97
2022-08-01T04:54:02.732Z,5.42
2022-08-01T04:55:07.176Z,5.04
2022-08-01T04:56:09.121Z,5.24
2022-08-01T04:57:10.830Z,5.17
2022-08-01T04:58:17.676Z,5.09
2022-08-01T04:59:39.650Z,4.86
2022-08-01T05:00:41.562Z,4.92
2022-08-01T05:01:43.251Z,5.06
2022-08-01T05:02:45.088Z,5.04
2022-08-01T05:03:46.762Z,5.06
2022-08-01T05:04:48.419Z,5.19
2022-08-01T05:05:50.080Z,5.72
2022-08-01T05:06:51.731Z,5.70
2022-08-01T05:07:53.386Z,5.72
2022-08-01T05:08:55.265Z,5.55
2022-08-01T05:09:56.940Z,5.13
2022-08-01T05:10:58.645Z,5.26
2022-08-01T05:12:02.868Z,5.12
2022-08-01T05:13:04.763Z,5.30
2022-08-01T05:14:07.576Z,5.31
2022-08-01T05:15:15.121Z,4.95
2022-08-01T05:16:17.950Z,5.32
2022-08-01T05:17:19.628Z,5.11
2022-08-01T05:18:26.421Z,5.20
2022-08-01T05:19:32.843Z,5.61
2022-08-01T05:20:34.604Z,5.31
2022-08-01T05:21:38.331Z,5.62
2022-08-01T05:22:40.460Z,5.44
2022-08-01T05:23:43.567Z,4.92
2022-08-01T05:24:45.472Z,5.48
2022-08-01T05:25:56.119Z,4.67
2022-08-01T05:27:00.891Z,5.13
2022-08-01T05:28:05.065Z,5.13
2022-08-01T05:29:07.859Z,5.13
2022-08-01T05:30:11.086Z,4.82
2022-08-01T05:31:12.739Z,5.20
2022-08-01T05:32:14.545Z,5.08
2022-08-01T05:33:16.219Z,4.99
2022-08-01T05:34:17.926Z,4.91
2022-08-01T05:35:19.577Z,4.98
2022-08-01T05:36:21.238Z,5.70
2022-08-01T05:37:22.911Z,5.02
2022-08-01T05:38:24.536Z,4.61
2022-08-01T05:39:26.214Z,4.48
2022-08-01T05:40:27.890Z,4.60
2022-08-01T05:41:29.696Z,4.49
2022-08-01T05:42:31.430Z,4.49
2022-08-01T05:43:33.080Z,4.57
2022-08-01T05:44:34.740Z,4.58
2022-08-01T05:45:36.418Z,4.42
2022-08-01T05:46:39.113Z,4.03
2022-08-01T05:47:42.843Z,4.60
2022-08-01T05:48:44.858Z,4.44
2022-08-01T05:49:47.008Z,4.45
2022-08-01T05:50:48.898Z,4.39
2022-08-01T05:51:50.566Z,4.29
2022-08-01T05:52:52.205Z,4.34
2022-08-01T05:53:54.406Z,4.51
2022-08-01T05:54:56.004Z,4.37
2022-08-01T05:55:57.702Z,4.02
2022-08-01T05:57:02.543Z,3.98
2022-08-01T05:58:04.462Z,4.21
2022-08-01T05:59:06.107Z,4.49
2022-08-01T06:00:08.512Z,4.32
2022-08-01T06:01:13.497Z,4.04
2022-08-01T06:02:15.288Z,4.34
2022-08-01T06:03:17.020Z,4.24
2022-08-01T06:04:18.763Z,4.10
2022-08-01T06:05:20.488Z,4.11
2022-08-01T06:06:25.312Z,4.09
2022-08-01T06:07:27.349Z,3.74
2022-08-01T06:08:29.555Z,4.08
2022-08-01T06:09:31.874Z,4.27
2022-08-01T06:10:33.765Z,4.15
2022-08-01T06:11:35.802Z,4.63
2022-08-01T06:12:37.939Z,4.60
2022-08-01T06:13:48.320Z,4.45
2022-08-01T06:14:50.580Z,4.14
2022-08-01T06:15:52.290Z,4.29
2022-08-01T06:16:54.070Z,4.49
2022-08-01T06:17:56.482Z,4.74
2022-08-01T06:18:58.135Z,4.73
2022-08-01T06:20:00.456Z,4.69
2022-08-01T06:21:02.103Z,4.48
2022-08-01T06:22:04.256Z,4.19
2022-08-01T06:23:22.464Z,4.73
2022-08-01T06:24:28.201Z,4.29
2022-08-01T06:25:30.406Z,4.69
2022-08-01T06:26:32.292Z,4.30
2022-08-01T06:27:36.407Z,4.52
2022-08-01T06:28:39.465Z,4.75
2022-08-01T06:29:41.182Z,4.11
2022-08-01T06:30:55.403Z,4.08
2022-08-01T06:31:57.057Z,4.00
2022-08-01T06:32:59.624Z,4.10
2022-08-01T06:34:01.407Z,4.16
2022-08-01T06:35:03.398Z,3.79
2022-08-01T06:36:05.166Z,4.17
2022-08-01T06:37:07.038Z,3.86
2022-08-01T06:38:09.504Z,3.92
2022-08-01T06:39:11.134Z,4.42
2022-08-01T06:40:17.188Z,4.38
2022-08-01T06:41:19.205Z,4.17
2022-08-01T06:42:20.870Z,4.54
2022-08-01T06:43:22.643Z,4.23
2022-08-01T06:44:24.289Z,3.95
2022-08-01T06:45:27.847Z,4.47
2022-08-01T06:46:32.555Z,3.88
2022-08-01T06:47:38.281Z,4.31
2022-08-01T06:48:40.366Z,4.26
2022-08-01T06:49:42.112Z,4.56
2022-08-01T06:50:43.766Z,4.56
2022-08-01T06:51:45.506Z,4.77
2022-08-01T06:52:47.231Z,4.38
2022-08-01T06:53:48.866Z,4.65
2022-08-01T06:54:50.793Z,4.02
2022-08-01T06:55:52.430Z,4.71
2022-08-01T06:56:54.052Z,4.32
2022-08-01T06:57:55.693Z,4.64
2022-08-01T06:59:01.753Z,4.42
2022-08-01T07:00:09.693Z,4.31
2022-08-01T07:01:11.477Z,4.59
2022-08-01T07:02:13.189Z,4.77
2022-08-01T07:03:14.938Z,4.45
2022-08-01T07:04:16.577Z,3.99
2022-08-01T07:05:18.530Z,4.35
2022-08-01T07:06:20.269Z,4.38
2022-08-01T07:07:22.004Z,4.17
2022-08-01T07:08:23.865Z,4.72
2022-08-01T07:09:25.665Z,4.13
2022-08-01T07:10:27.368Z,4.39
2022-08-01T07:11:29.005Z,4.38
2022-08-01T07:12:30.661Z,4.78
2022-08-01T07:13:44.076Z,4.39
2022-08-01T07:14:47.166Z,4.67
2022-08-01T07:15:48.806Z,4.14
2022-08-01T07:16:51.304Z,5.01
2022-08-01T07:17:53.261Z,4.23
2022-08-01T07:18:54.945Z,4.30
2022-08-01T07:19:57.808Z,4.45
2022-08-01T07:20:59.649Z,4.44
2022-08-01T07:22:01.322Z,4.39
2022-08-01T07:23:06.095Z,4.92
2022-08-01T07:24:14.486Z,4.38
2022-08-01T07:25:16.866Z,4.15
2022-08-01T07:26:18.541Z,4.06
2022-08-01T07:27:25.540Z,3.92
2022-08-01T07:28:29.343Z,4.12
2022-08-01T07:29:31.017Z,4.16
2022-08-01T07:30:32.672Z,3.82
2022-08-01T07:31:34.337Z,4.53
2022-08-01T07:32:36.062Z,4.45
2022-08-01T07:33:47.787Z,4.22
2022-08-01T07:34:51.220Z,4.25
2022-08-01T07:35:52.934Z,3.84
2022-08-01T07:36:54.649Z,4.07
2022-08-01T07:37:56.315Z,4.06
2022-08-01T07:38:57.978Z,3.88
2022-08-01T07:40:00.108Z,3.74
2022-08-01T07:41:01.823Z,4.22
2022-08-01T07:42:07.331Z,4.25
2022-08-01T07:43:10.157Z,4.08
2022-08-01T07:44:11.810Z,3.96
2022-08-01T07:45:14.185Z,4.12
2022-08-01T07:46:17.170Z,4.08
2022-08-01T07:47:25.264Z,4.02
2022-08-01T07:48:28.030Z,3.72
2022-08-01T07:49:30.032Z,3.92
2022-08-01T07:50:34.165Z,3.68
2022-08-01T07:51:36.010Z,4.14
2022-08-01T07:52:37.710Z,4.29
2022-08-01T07:53:39.428Z,3.35
2022-08-01T07:54:41.086Z,4.21
2022-08-01T07:55:43.302Z,3.81
2022-08-01T07:56:47.741Z,3.89
2022-08-01T07:57:49.593Z,3.76
2022-08-01T07:58:51.459Z,3.71
2022-08-01T07:59:53.305Z,3.73
2022-08-01T08:00:54.982Z,3.75
2022-08-01T08:01:56.755Z,3.34
2022-08-01T08:03:00.276Z,3.66
2022-08-01T08:04:02.228Z,3.63
2022-08-01T08:05:04.843Z,3.30
2022-08-01T08:06:07.383Z,3.57
2022-08-01T08:07:09.475Z,3.71
2022-08-01T08:08:12.444Z,3.19
2022-08-01T08:09:15.678Z,3.54
2022-08-01T08:10:17.504Z,3.12
2022-08-01T08:11:19.140Z,3.27
2022-08-01T08:12:28.477Z,3.53
2022-08-01T08:13:31.598Z,3.32
2022-08-01T08:14:33.432Z,3.47
2022-08-01T08:15:35.236Z,3.46
2022-08-01T08:16:36.941Z,3.42
2022-08-01T08:17:38.683Z,3.37
2022-08-01T08:18:40.421Z,3.38
2022-08-01T08:19:42.121Z,3.17
2022-08-01T08:20:44.714Z,2.92
2022-08-01T08:21:46.434Z,3.18
2022-08-01T08:22:48.098Z,2.92
2022-08-01T08:24:08.092Z,2.72
2022-08-01T08:25:12.525Z,2.91
2022-08-01T08:26:14.164Z,3.48
2022-08-01T08:27:16.171Z,3.49
2022-08-01T08:28:17.967Z,3.11
2022-08-01T08:29:20.175Z,3.26
2022-08-01T08:30:22.000Z,3.63
2022-08-01T08:31:25.621Z,2.99
2022-08-01T08:32:45.964Z,3.40
2022-08-01T08:33:47.606Z,3.51
2022-08-01T08:34:49.282Z,2.91
2022-08-01T08:35:53.652Z,3.18
2022-08-01T08:36:58.866Z,3.02
2022-08-01T08:38:00.839Z,3.19
2022-08-01T08:39:04.333Z,3.00
2022-08-01T08:40:07.447Z,3.59
2022-08-01T08:41:10.628Z,3.37
2022-08-01T08:42:12.913Z,3.66
2022-08-01T08:43:17.225Z,3.51
2022-08-01T08:44:21.068Z,2.90
2022-08-01T08:45:23.162Z,2.80
2022-08-01T08:46:47.562Z,3.33
2022-08-01T08:47:51.030Z,3.22
2022-08-01T08:48:53.469Z,3.29
2022-08-01T08:49:57.493Z,3.49
2022-08-01T08:51:02.353Z,3.28
2022-08-01T08:52:08.899Z,3.05
2022-08-01T08:53:18.363Z,2.98
2022-08-01T08:54:30.851Z,3.25
2022-08-01T08:55:33.143Z,3.30
2022-08-01T08:56:56.102Z,3.20
2022-08-01T08:57:58.834Z,3.33
2022-08-01T08:59:02.125Z,3.05
2022-08-01T09:00:04.652Z,3.11
2022-08-01T09:01:08.061Z,3.00
2022-08-01T09:02:10.799Z,3.20
2022-08-01T09:03:13.290Z,3.19
2022-08-01T09:04:15.513Z,3.32
2022-08-01T09:05:19.833Z,3.43
2022-08-01T09:06:21.753Z,3.58
2022-08-01T09:07:26.333Z,3.58
2022-08-01T09:08:28.045Z,3.43
2022-08-01T09:09:29.723Z,3.64
2022-08-01T09:10:31.401Z,3.55
2022-08-01T09:11:34.901Z,3.25
2022-08-01T09:12:38.562Z,3.22
2022-08-01T09:13:45.279Z,3.10
2022-08-01T09:14:50.647Z,2.94
2022-08-01T09:15:54.974Z,3.05
2022-08-01T09:17:11.799Z,3.35
2022-08-01T09:18:41.516Z,3.44
2022-08-01T09:19:50.255Z,3.12
2022-08-01T09:20:51.970Z,3.22
2022-08-01T09:22:02.719Z,3.09
2022-08-01T09:23:04.742Z,3.48
2022-08-01T09:24:18.715Z,3.35
2022-08-01T09:25:51.529Z,3.12
2022-08-01T09:26:55.129Z,3.50
2022-08-01T09:28:07.281Z,3.18
2022-08-01T09:29:34.702Z,3.24
2022-08-01T09:30:40.782Z,3.12
2022-08-01T09:31:47.713Z,3.16
2022-08-01T09:32:55.845Z,3.22
2022-08-01T09:34:05.067Z,3.26
2022-08-01T09:35:36.241Z,3.13
2022-08-01T09:36:45.746Z,3.33
2022-08-01T09:37:47.542Z,3.70
2022-08-01T09:38:51.550Z,3.27
2022-08-01T09:39:58.421Z,3.24
2022-08-01T09:41:01.873Z,3.37
2022-08-01T09:42:28.343Z,3.44
2022-08-01T09:43:32.759Z,3.44
2022-08-01T09:44:44.757Z,3.13
2022-08-01T09:45:49.132Z,3.46
2022-08-01T09:46:55.044Z,3.55
2022-08-01T09:47:56.815Z,3.09
2022-08-01T09:49:02.271Z,3.24
2022-08-01T09:50:11.235Z,3.19
2022-08-01T09:51:13.971Z,3.23
2022-08-01T09:52:35.630Z,3.46
2022-08-01T09:53:43.452Z,3.38
2022-08-01T09:55:00.690Z,4.06
2022-08-01T09:56:13.520Z,4.17
2022-08-01T09:57:18.899Z,3.76
2022-08-01T09:58:21.614Z,3.37
2022-08-01T09:59:56.748Z,3.67
2022-08-01T10:01:01.155Z,4.06
2022-08-01T10:02:02.825Z,3.92
2022-08-01T10:03:25.399Z,4.07
2022-08-01T10:04:28.505Z,4.15
2022-08-01T10:05:37.158Z,3.74
2022-08-01T10:06:43.563Z,3.97
2022-08-01T10:08:07.943Z,3.92
2022-08-01T10:09:10.291Z,3.69
2022-08-01T10:10:16.054Z,4.09
2022-08-01T10:11:18.723Z,4.26
2022-08-01T10:12:24.658Z,3.99
2022-08-01T10:13:36.571Z,4.11
2022-08-01T10:14:41.007Z,3.93
2022-08-01T10:15:43.551Z,4.08
2022-08-01T10:16:53.621Z,3.96
2022-08-01T10:18:02.170Z,3.63
2022-08-01T10:19:14.567Z,4.17
2022-08-01T10:20:30.512Z,3.93
2022-08-01T10:21:56.713Z,3.73
2022-08-01T10:23:05.844Z,3.85
2022-08-01T10:24:12.105Z,3.76
2022-08-01T10:25:18.800Z,4.23
2022-08-01T10:26:41.953Z,4.01
2022-08-01T10:27:46.484Z,3.28
2022-08-01T10:28:49.844Z,3.99
2022-08-01T10:30:05.140Z,3.78
2022-08-01T10:31:12.582Z,3.62
2022-08-01T10:32:18.289Z,3.84
2022-08-01T10:33:51.200Z,3.85
2022-08-01T10:34:46.480Z,3.82
2022-08-01T10:35:48.635Z,3.44
2022-08-01T10:36:50.636Z,3.58
2022-08-01T10:37:57.487Z,3.30
2022-08-01T10:38:59.560Z,3.72
2022-08-01T10:40:28.695Z,3.49
2022-08-01T10:41:27.394Z,3.66
2022-08-01T10:42:30.322Z,3.49
2022-08-01T10:43:32.213Z,3.37
2022-08-01T10:44:35.022Z,3.31
2022-08-01T10:45:37.037Z,3.49
2022-08-01T10:46:40.722Z,3.12
2022-08-01T10:48:14.270Z,3.02
2022-08-01T10:49:21.274Z,3.17
2022-08-01T10:50:34.695Z,3.36
2022-08-01T10:51:51.267Z,3.17
2022-08-01T10:53:15.256Z,3.49
2022-08-01T10:54:27.836Z,3.15
2022-08-01T10:55:29.603Z,3.33
2022-08-01T10:56:41.715Z,3.21
2022-08-01T10:57:52.639Z,3.54
2022-08-01T10:59:06.088Z,3.04
2022-08-01T11:00:09.339Z,3.39
2022-08-01T11:01:30.450Z,2.91
2022-08-01T11:02:41.658Z,3.12
2022-08-01T11:03:58.369Z,2.90
2022-08-01T11:05:14.332Z,2.99
2022-08-01T11:06:18.611Z,3.30
2022-08-01T11:07:35.564Z,2.86
2022-08-01T11:08:39.241Z,3.15
2022-08-01T11:09:50.849Z,3.40
2022-08-01T11:11:02.228Z,2.93
2022-08-01T11:12:08.170Z,2.96
2022-08-01T11:13:15.479Z,3.73
2022-08-01T11:14:22.677Z,3.52
2022-08-01T11:15:31.499Z,3.13
2022-08-01T11:16:36.366Z,3.08
2022-08-01T11:17:48.466Z,3.27
2022-08-01T11:18:54.191Z,3.04
2022-08-01T11:20:19.266Z,3.22
2022-08-01T11:21:58.918Z,3.16
2022-08-01T11:22:58.527Z,2.91
2022-08-01T11:24:00.227Z,3.24
2022-08-01T11:25:02.260Z,3.12
2022-08-01T11:26:06.040Z,3.22
2022-08-01T11:27:33.553Z,3.22
2022-08-01T11:28:36.856Z,3.22
2022-08-01T11:29:42.229Z,3.20
2022-08-01T11:30:49.450Z,3.14
2022-08-01T11:31:52.739Z,3.36
2022-08-01T11:33:12.809Z,3.44
2022-08-01T11:34:16.107Z,3.07
2022-08-01T11:35:21.699Z,3.19
2022-08-01T11:36:56.760Z,3.26
2022-08-01T11:37:45.616Z,3.28
2022-08-01T11:38:49.581Z,3.46
2022-08-01T11:40:24.981Z,3.28
2022-08-01T11:41:39.038Z,3.29
2022-08-01T11:42:41.079Z,3.57
2022-08-01T11:44:00.715Z,3.69
2022-08-01T11:45:04.302Z,3.56
2022-08-01T11:46:06.823Z,3.62
2022-08-01T11:47:11.662Z,3.51
2022-08-01T11:48:27.582Z,3.60
2022-08-01T11:49:39.330Z,3.40
2022-08-01T11:50:42.177Z,3.78
2022-08-01T11:51:44.349Z,3.69
2022-08-01T11:52:47.129Z,3.42
2022-08-01T11:53:50.408Z,3.35
2022-08-01T11:54:56.966Z,3.23
2022-08-01T11:56:00.702Z,3.09
2022-08-01T11:57:06.156Z,3.70
2022-08-01T11:58:22.549Z,3.24
2022-08-01T11:59:38.025Z,3.55
2022-08-01T12:00:43.962Z,3.42
2022-08-01T12:01:49.098Z,3.55
2022-08-01T12:03:00.213Z,3.62
2022-08-01T12:04:02.210Z,3.47
2022-08-01T12:05:11.878Z,3.53
2022-08-01T12:06:13.994Z,3.95
2022-08-01T12:07:16.368Z,3.88
2022-08-01T12:08:34.198Z,3.75
2022-08-01T12:09:35.831Z,3.62
2022-08-01T12:10:49.409Z,3.60
2022-08-01T12:11:51.698Z,3.59
2022-08-01T12:13:00.780Z,4.22
2022-08-01T12:14:02.657Z,3.98
2022-08-01T12:15:09.898Z,4.18
2022-08-01T12:16:12.308Z,3.71
2022-08-01T12:17:14.140Z,4.20
2022-08-01T12:18:15.949Z,3.84
2022-08-01T12:19:25.594Z,4.39
2022-08-01T12:20:31.204Z,4.04
2022-08-01T12:21:33.480Z,4.06
2022-08-01T12:22:35.361Z,3.65
2022-08-01T12:23:36.989Z,4.13
2022-08-01T12:24:41.926Z,4.17
2022-08-01T12:25:48.266Z,4.44
2022-08-01T12:26:49.938Z,4.37
2022-08-01T12:27:56.000Z,3.71
2022-08-01T12:28:58.368Z,4.21
2022-08-01T12:30:02.254Z,4.16
2022-08-01T12:31:04.089Z,3.96
2022-08-01T12:32:27.962Z,3.74
2022-08-01T12:33:37.214Z,3.51
2022-08-01T12:34:39.064Z,3.78
2022-08-01T12:35:42.617Z,3.65
2022-08-01T12:36:45.071Z,3.99
2022-08-01T12:37:55.573Z,3.87
2022-08-01T12:39:00.275Z,3.92
2022-08-01T12:40:10.493Z,4.10
2022-08-01T12:41:12.663Z,4.14
2022-08-01T12:42:15.709Z,4.44
2022-08-01T12:43:27.907Z,4.55
2022-08-01T12:44:32.058Z,4.05
2022-08-01T12:45:40.671Z,4.42
2022-08-01T12:46:56.591Z,4.33
2022-08-01T12:48:00.567Z,4.19
2022-08-01T12:49:02.693Z,4.23
2022-08-01T12:50:08.645Z,4.43
2022-08-01T12:51:12.626Z,4.34
2022-08-01T12:52:15.912Z,4.11
2022-08-01T12:53:19.701Z,3.62
2022-08-01T12:54:25.781Z,4.14
2022-08-01T12:55:34.385Z,3.88
2022-08-01T12:56:37.072Z,3.91
2022-08-01T12:57:42.722Z,4.11
2022-08-01T12:58:44.472Z,4.28
2022-08-01T12:59:46.289Z,4.02
2022-08-01T13:01:02.679Z,4.13
2022-08-01T13:02:09.840Z,4.37
2022-08-01T13:03:18.006Z,3.73
2022-08-01T13:04:20.855Z,4.19
2022-08-01T13:05:25.859Z,3.91
2022-08-01T13:06:31.433Z,3.77
2022-08-01T13:07:45.607Z,3.91
2022-08-01T13:08:47.645Z,3.85
2022-08-01T13:09:53.008Z,3.93
2022-08-01T13:11:03.097Z,3.89
2022-08-01T13:12:11.132Z,3.96
2022-08-01T13:13:22.155Z,3.73
2022-08-01T13:14:30.692Z,3.89
2022-08-01T13:15:35.853Z,3.71
2022-08-01T13:16:56.710Z,3.62
2022-08-01T13:18:01.562Z,3.57
2022-08-01T13:19:03.330Z,4.08
2022-08-01T13:20:06.224Z,3.77
2022-08-01T13:21:12.023Z,3.90
2022-08-01T13:22:13.729Z,4.11
2022-08-01T13:23:22.736Z,3.82
2022-08-01T13:24:40.196Z,4.69
2022-08-01T13:26:08.542Z,4.56
2022-08-01T13:27:24.805Z,4.11
2022-08-01T13:28:28.309Z,4.27
2022-08-01T13:29:33.752Z,3.94
2022-08-01T13:30:35.450Z,4.19
2022-08-01T13:31:39.097Z,4.24
2022-08-01T13:32:41.071Z,4.67
2022-08-01T13:33:54.051Z,4.59
2022-08-01T13:35:03.958Z,4.58
2022-08-01T13:36:05.844Z,4.32
2022-08-01T13:37:07.514Z,4.39
2022-08-01T13:38:09.355Z,4.21
2022-08-01T13:39:29.702Z,4.26
2022-08-01T13:40:31.574Z,4.62
2022-08-01T13:41:35.410Z,4.69
2022-08-01T13:42:38.556Z,4.37
2022-08-01T13:43:58.979Z,4.38
2022-08-01T13:45:03.694Z,4.76
2022-08-01T13:46:05.580Z,5.02
2022-08-01T13:47:15.139Z,4.88
2022-08-01T13:48:19.778Z,4.75
2022-08-01T13:49:22.881Z,4.57
2022-08-01T13:50:24.799Z,4.85
2022-08-01T13:51:26.480Z,4.60
2022-08-01T13:52:28.266Z,4.71
2022-08-01T13:53:30.040Z,4.80
2022-08-01T13:54:32.644Z,4.64
2022-08-01T13:55:35.521Z,4.72
2022-08-01T13:56:37.456Z,5.06
2022-08-01T13:57:39.229Z,4.79
2022-08-01T13:58:40.916Z,4.37
2022-08-01T13:59:42.577Z,4.92
2022-08-01T14:00:44.602Z,4.67
2022-08-01T14:01:47.555Z,4.53
2022-08-01T14:02:49.349Z,4.58
2022-08-01T14:03:52.181Z,4.96
2022-08-01T14:04:56.565Z,4.82
2022-08-01T14:05:58.679Z,4.64
2022-08-01T14:07:04.294Z,4.63
2022-08-01T14:08:11.599Z,4.63
2022-08-01T14:09:17.804Z,4.66
2022-08-01T14:10:20.775Z,4.85
2022-08-01T14:11:22.604Z,4.58
2022-08-01T14:12:24.457Z,4.67
2022-08-01T14:13:32.143Z,5.03
2022-08-01T14:14:39.291Z,4.92
2022-08-01T14:15:40.955Z,4.44
2022-08-01T14:16:48.382Z,4.47
2022-08-01T14:17:50.089Z,4.71
2022-08-01T14:18:51.849Z,4.25
2022-08-01T14:19:53.514Z,4.50
2022-08-01T14:20:56.823Z,4.67
2022-08-01T14:22:07.361Z,4.09
2022-08-01T14:23:09.976Z,4.39
2022-08-01T14:24:11.648Z,4.23
2022-08-01T14:25:13.869Z,4.39
2022-08-01T14:26:27.485Z,4.20
2022-08-01T14:27:31.713Z,4.19
2022-08-01T14:28:34.279Z,4.53
2022-08-01T14:30:00.021Z,3.88
2022-08-01T14:30:59.899Z,4.33
2022-08-01T14:32:01.689Z,4.03
2022-08-01T14:33:03.765Z,4.35
2022-08-01T14:34:05.412Z,4.80
2022-08-01T14:35:07.482Z,4.48
2022-08-01T14:36:30.282Z,4.90
2022-08-01T14:37:35.934Z,4.97
2022-08-01T14:38:39.730Z,4.53